createdAt,value
2018-06-13T00:02:17.110Z,8.50
2018-06-13T00:07:19.241Z,8.33
2018-06-13T00:12:21.380Z,8.60
2018-06-13T00:17:23.537Z,8.77
2018-06-13T00:22:25.669Z,8.87
2018-06-13T00:27:27.799Z,8.73
2018-06-13T00:32:29.942Z,8.40
2018-06-13T00:37:32.110Z,9.50
2018-06-13T00:42:34.250Z,9.43
2018-06-13T00:47:36.397Z,9.33
2018-06-13T00:52:38.529Z,9.27
2018-06-13T00:57:40.670Z,8.30
2018-06-13T01:02:42.861Z,9.27
2018-06-13T01:07:45.019Z,9.07
2018-06-13T01:12:47.177Z,9.40
2018-06-13T01:17:49.337Z,9.63
2018-06-13T01:22:51.465Z,10.00
2018-06-13T01:27:53.614Z,9.23
2018-06-13T01:32:55.770Z,9.20
2018-06-13T01:37:57.980Z,9.80
2018-06-13T01:43:00.140Z,9.80
2018-06-13T01:48:02.287Z,9.27
2018-06-13T01:53:04.422Z,8.90
2018-06-13T01:58:06.697Z,8.50
2018-06-13T02:03:09.006Z,9.20
2018-06-13T02:08:11.157Z,8.60
2018-06-13T02:13:13.317Z,9.80
2018-06-13T02:18:15.482Z,9.20
2018-06-13T02:23:17.618Z,9.30
2018-06-13T02:28:19.766Z,8.90
2018-06-13T02:33:21.941Z,9.67
2018-06-13T02:38:24.115Z,8.97
2018-06-13T02:43:26.264Z,9.03
2018-06-13T02:48:28.405Z,9.60
2018-06-13T02:53:30.546Z,8.83
2018-06-13T02:58:32.677Z,9.13
2018-06-13T03:03:34.821Z,8.80
2018-06-13T03:08:36.985Z,8.70
2018-06-13T03:13:39.118Z,8.60
2018-06-13T03:18:41.277Z,8.50
2018-06-13T03:23:43.429Z,8.73
2018-06-13T03:28:45.562Z,8.40
2018-06-13T03:33:47.734Z,8.40
2018-06-13T03:38:49.902Z,8.10
2018-06-13T03:43:52.053Z,8.13
2018-06-13T03:48:54.209Z,8.30
2018-06-13T03:53:56.379Z,8.20
2018-06-13T03:58:58.509Z,7.70
2018-06-13T04:04:00.659Z,7.60
2018-06-13T04:09:03.606Z,7.97
2018-06-13T04:14:05.749Z,6.90
2018-06-13T04:19:07.893Z,6.67
2018-06-13T04:24:10.142Z,7.20
2018-06-13T04:29:12.302Z,6.80
2018-06-13T04:34:14.501Z,6.40
2018-06-13T04:39:16.674Z,6.30
2018-06-13T04:44:18.838Z,5.97
2018-06-13T04:49:20.993Z,6.10
2018-06-13T04:54:23.189Z,5.87
2018-06-13T04:59:26.230Z,6.50
2018-06-13T05:04:28.396Z,5.97
2018-06-13T05:09:30.541Z,5.80
2018-06-13T05:14:32.714Z,5.70
2018-06-13T05:19:34.902Z,5.13
2018-06-13T05:24:37.078Z,4.70
2018-06-13T05:29:39.238Z,5.03
2018-06-13T05:34:41.424Z,6.00
2018-06-13T05:39:43.634Z,6.97
2018-06-13T05:44:45.789Z,11.00
2018-06-13T05:49:47.957Z,11.07
2018-06-13T05:54:50.188Z,10.27
2018-06-13T05:59:52.322Z,9.50
2018-06-13T06:04:54.490Z,8.43
2018-06-13T06:09:56.658Z,6.23
2018-06-13T06:14:58.816Z,6.57
2018-06-13T06:20:00.982Z,6.33
2018-06-13T06:25:03.250Z,6.40
2018-06-13T06:30:05.447Z,6.23
2018-06-13T06:35:07.599Z,6.00
2018-06-13T06:40:09.733Z,6.70
2018-06-13T06:45:11.862Z,5.83
2018-06-13T06:50:14.001Z,5.30
2018-06-13T06:55:16.212Z,5.40
2018-06-13T07:00:18.331Z,5.43
2018-06-13T07:05:20.472Z,5.03
2018-06-13T07:10:22.656Z,5.80
2018-06-13T07:15:24.801Z,5.67
2018-06-13T07:20:27.030Z,5.20
2018-06-13T07:25:29.166Z,5.37
2018-06-13T07:30:31.310Z,5.20
2018-06-13T07:35:33.472Z,5.10
2018-06-13T07:40:35.602Z,4.70
2018-06-13T07:45:37.735Z,4.70
2018-06-13T07:50:39.886Z,5.00
2018-06-13T07:55:42.027Z,3.90
2018-06-13T08:00:44.181Z,4.30
2018-06-13T08:05:46.345Z,4.30
2018-06-13T08:10:48.502Z,4.00
2018-06-13T08:15:50.650Z,4.20
2018-06-13T08:20:52.785Z,4.13
2018-06-13T08:25:55.065Z,3.77
2018-06-13T08:30:57.206Z,3.30
2018-06-13T08:35:59.361Z,3.80
2018-06-13T08:41:01.515Z,3.90
2018-06-13T08:46:04.004Z,3.60
2018-06-13T08:51:06.141Z,3.43
2018-06-13T08:56:08.289Z,3.30
2018-06-13T09:01:10.421Z,3.30
2018-06-13T09:06:12.575Z,3.80
2018-06-13T09:11:14.735Z,4.03
2018-06-13T09:16:16.903Z,3.70
2018-06-13T09:21:19.094Z,3.77
2018-06-13T09:26:21.224Z,3.30
2018-06-13T09:31:23.437Z,3.10
2018-06-13T09:36:25.628Z,2.90
2018-06-13T09:41:27.753Z,2.63
2018-06-13T09:46:29.894Z,2.70
2018-06-13T09:51:32.039Z,3.67
2018-06-13T09:56:34.190Z,3.07
2018-06-13T10:01:41.996Z,3.03
2018-06-13T10:06:44.159Z,2.90
2018-06-13T10:11:46.293Z,3.13
2018-06-13T10:16:48.435Z,3.00
2018-06-13T10:21:50.598Z,3.43
2018-06-13T10:26:52.753Z,3.20
2018-06-13T10:31:54.957Z,3.50
2018-06-13T10:36:57.126Z,4.20
2018-06-13T10:41:59.298Z,4.00
2018-06-13T10:47:01.474Z,4.13
2018-06-13T10:52:03.678Z,4.20
2018-06-13T10:57:05.862Z,3.57
2018-06-13T11:02:08.045Z,3.70
2018-06-13T11:07:10.202Z,3.50
2018-06-13T11:12:12.434Z,3.80
2018-06-13T11:17:14.626Z,3.70
2018-06-13T11:22:16.782Z,3.87
2018-06-13T11:27:18.946Z,2.93
2018-06-13T11:32:21.146Z,3.10
2018-06-13T11:37:23.345Z,2.87
2018-06-13T11:42:25.537Z,3.17
2018-06-13T11:47:27.732Z,3.30
2018-06-13T11:52:29.882Z,3.20
2018-06-13T11:57:32.062Z,3.97
2018-06-13T12:02:34.290Z,3.83
2018-06-13T12:07:36.446Z,3.80
2018-06-13T12:12:38.657Z,3.33
2018-06-13T12:17:40.822Z,3.47
2018-06-13T12:22:42.974Z,2.97
2018-06-13T12:27:45.142Z,4.00
2018-06-13T12:32:47.342Z,3.80
2018-06-13T12:37:49.531Z,3.30
2018-06-13T12:42:51.741Z,3.23
2018-06-13T12:47:54.026Z,2.93
2018-06-13T12:52:56.413Z,3.13
2018-06-13T12:57:58.606Z,3.20
2018-06-13T13:03:00.803Z,3.37
2018-06-13T13:08:03.009Z,3.53
2018-06-13T13:13:05.207Z,3.57
2018-06-13T13:18:07.393Z,3.77
2018-06-13T13:23:09.579Z,3.30
2018-06-13T13:28:11.758Z,3.00
2018-06-13T13:33:13.918Z,3.40
2018-06-13T13:38:16.089Z,3.30
2018-06-13T13:43:18.234Z,3.40
2018-06-13T13:48:20.394Z,3.20
2018-06-13T13:53:22.555Z,3.13
2018-06-13T13:58:24.715Z,3.20
2018-06-13T14:03:26.854Z,3.30
2018-06-13T14:08:28.982Z,3.40
2018-06-13T14:13:31.540Z,2.93
2018-06-13T14:18:33.689Z,3.00
2018-06-13T14:23:35.814Z,2.60
2018-06-13T14:28:37.954Z,2.60
2018-06-13T14:33:40.390Z,2.33
2018-06-13T14:38:42.514Z,2.10
2018-06-13T14:43:44.667Z,2.37
2018-06-13T14:48:46.822Z,3.33
2018-06-13T14:53:50.646Z,3.20
2018-06-13T14:58:52.792Z,3.17
2018-06-13T15:03:55.117Z,3.40
2018-06-13T15:08:57.270Z,3.60
2018-06-13T15:13:59.429Z,3.97
2018-06-13T15:19:01.650Z,3.87
2018-06-13T15:24:03.790Z,3.97
2018-06-13T15:29:06.025Z,3.53
2018-06-13T15:34:08.273Z,3.27
2018-06-13T15:39:12.222Z,3.37
2018-06-13T15:44:14.377Z,3.70
2018-06-13T15:49:16.537Z,3.80
2018-06-13T15:54:18.713Z,4.03
2018-06-13T15:59:20.850Z,3.70
2018-06-13T16:04:23.022Z,4.00
2018-06-13T16:09:25.185Z,4.67
2018-06-13T16:14:27.333Z,4.43
2018-06-13T16:19:29.522Z,4.23
2018-06-13T16:24:32.137Z,4.20
2018-06-13T16:29:34.342Z,4.07
2018-06-13T16:34:36.482Z,3.90
2018-06-13T16:39:39.065Z,4.40
2018-06-13T16:44:41.221Z,4.00
2018-06-13T16:49:43.410Z,3.70
2018-06-13T16:54:57.976Z,4.20
2018-06-13T17:00:00.167Z,3.87
2018-06-13T17:05:02.344Z,3.83
2018-06-13T17:10:04.551Z,4.10
2018-06-13T17:15:06.783Z,3.73
2018-06-13T17:20:08.937Z,3.80
2018-06-13T17:25:11.105Z,3.60
2018-06-13T17:30:13.294Z,3.63
2018-06-13T17:35:15.450Z,4.00
2018-06-13T17:40:17.602Z,3.90
2018-06-13T17:45:19.911Z,3.80
2018-06-13T17:50:22.077Z,3.93
2018-06-13T17:55:24.278Z,4.60
2018-06-13T18:00:26.495Z,3.73
2018-06-13T18:05:28.650Z,4.23
2018-06-13T18:10:30.791Z,4.40
2018-06-13T18:15:32.995Z,3.90
2018-06-13T18:20:35.175Z,4.30
2018-06-13T18:25:37.357Z,3.63
2018-06-13T18:30:40.427Z,4.23
2018-06-13T18:35:42.600Z,4.10
2018-06-13T18:40:44.766Z,4.03
2018-06-13T18:45:46.907Z,3.80
2018-06-13T18:50:49.101Z,3.70
2018-06-13T18:55:51.269Z,3.60
2018-06-13T19:00:53.471Z,3.70
2018-06-13T19:05:55.653Z,3.10
2018-06-13T19:10:57.815Z,3.73
2018-06-13T19:15:59.992Z,3.00
2018-06-13T19:21:02.168Z,3.60
2018-06-13T19:26:04.449Z,3.93
2018-06-13T19:31:06.687Z,4.00
2018-06-13T19:36:08.956Z,3.90
2018-06-13T19:41:11.197Z,4.13
2018-06-13T19:46:13.626Z,4.67
2018-06-13T19:51:15.818Z,4.00
2018-06-13T19:56:20.577Z,4.40
2018-06-13T20:01:22.829Z,4.83
2018-06-13T20:06:24.972Z,5.27
2018-06-13T20:11:27.151Z,4.67
2018-06-13T20:16:46.852Z,5.20
2018-06-13T20:21:48.989Z,5.53
2018-06-13T20:26:56.751Z,5.10
2018-06-13T20:31:58.918Z,4.60
2018-06-13T20:37:01.068Z,4.70
2018-06-13T20:42:03.225Z,5.50
2018-06-13T20:47:05.404Z,5.43
2018-06-13T20:52:07.561Z,5.27
2018-06-13T20:57:09.726Z,5.27
2018-06-13T21:02:11.889Z,5.37
2018-06-13T21:07:14.025Z,5.43
2018-06-13T21:12:16.188Z,5.33
2018-06-13T21:17:18.384Z,5.83
2018-06-13T21:22:20.675Z,5.73
2018-06-13T21:27:22.850Z,5.97
2018-06-13T21:32:24.973Z,6.07
2018-06-13T21:37:27.106Z,6.53
2018-06-13T21:42:29.298Z,5.73
2018-06-13T21:47:31.455Z,6.00
2018-06-13T21:52:33.614Z,6.10
2018-06-13T21:57:35.783Z,5.83
2018-06-13T22:02:37.935Z,5.70
2018-06-13T22:07:40.137Z,5.97
2018-06-13T22:12:42.299Z,6.80
2018-06-13T22:17:44.453Z,6.47
2018-06-13T22:22:46.790Z,6.47
2018-06-13T22:27:48.961Z,6.57
2018-06-13T22:32:51.174Z,6.80
2018-06-13T22:37:53.341Z,6.60
2018-06-13T22:42:55.538Z,7.00
2018-06-13T22:47:57.734Z,6.90
2018-06-13T22:52:59.913Z,7.00
2018-06-13T22:58:02.297Z,6.70
2018-06-13T23:03:04.518Z,6.73
2018-06-13T23:08:06.667Z,6.77
2018-06-13T23:13:08.878Z,6.30
2018-06-13T23:18:11.063Z,6.97
2018-06-13T23:23:13.229Z,6.50
2018-06-13T23:28:15.387Z,6.80
2018-06-13T23:33:17.566Z,6.57
2018-06-13T23:38:19.754Z,6.97
2018-06-13T23:43:22.137Z,6.63
2018-06-13T23:48:24.310Z,7.00
2018-06-13T23:53:26.502Z,7.20
2018-06-13T23:58:28.677Z,6.53
